Latest Weather Observations for Daly Waters

IDD60801

Issued at 7:31 am CST Friday 23 June 2017 (issued every 30 minutes, with the page automatically refreshed every 10 minutes)

About weather observations | Map of weather stations | Latest weather observations for NT | Other Formats
Station Details ID: 014626 Name: DALY WATERS AIRSTRIP Lat: -16.26 Lon: 133.38 Height: 209.84 m
Data from the previous 72 hours. | See also: Recent months at Daly Waters
Date/Time
CST
Temp
°C
App
Temp
°C
Dew
Point
°C
Rel
Hum
%
Delta-T
°C
Wind Press
QNH
hPa
Press
MSL
hPa
Rain since
9am
mm
Dir  Spd
km/h
Gust
km/h
Spd
kts
Gust
kts
23/07:30am 17.2 18.3 16.6 96 0.4 E 6 9 3 5 1017.0 1016.3 0.0
23/07:00am 16.2 18.0 15.6 96 0.4 CALM 0 0 0 0 1016.7 1016.0 0.0
23/06:30am 15.6 17.2 14.8 95 0.5 CALM 0 0 0 0 1016.4 1015.7 0.0
23/06:00am 14.8 16.1 14.0 95 0.5 CALM 0 0 0 0 1016.3 1015.6 0.0
23/05:30am 13.4 14.2 12.5 94 0.5 CALM 0 2 0 1 1016.3 1015.6 0.0
23/05:00am 11.2 11.1 9.6 90 0.8 CALM 0 0 0 0 1016.2 1015.5 0.0
23/04:30am 11.3 11.2 9.4 88 1.0 CALM 0 0 0 0 1016.2 1015.5 0.0
23/04:00am 11.4 11.3 9.3 87 1.1 CALM 0 0 0 0 1016.1 1015.4 0.0
23/03:30am 11.6 11.5 9.5 87 1.1 CALM 0 0 0 0 1016.2 1015.5 0.0
23/03:00am 11.7 11.6 9.4 86 1.2 CALM 0 0 0 0 1016.5 1015.8 0.0
23/02:30am 11.9 11.8 9.5 85 1.2 CALM 0 0 0 0 1016.7 1016.0 0.0
23/02:00am 12.1 12.1 9.7 85 1.2 CALM 0 0 0 0 1016.9 1016.2 0.0
23/01:30am 12.2 11.8 9.6 84 1.3 SE 2 2 1 1 1017.0 1016.3 0.0
23/01:00am 12.3 11.5 9.5 83 1.4 ESE 4 6 2 3 1017.1 1016.4 0.0
23/12:30am 12.7 12.7 9.7 82 1.5 CALM 0 0 0 0 1017.0 1016.3 0.0
23/12:00am 12.8 12.7 9.6 81 1.6 CALM 0 2 0 1 1017.0 1016.3 0.0
 
Date/Time
CST
Temp
°C
App
Temp
°C
Dew
Point
°C
Rel
Hum
%
Delta-T
°C
Wind Press
QNH
hPa
Press
MSL
hPa
Rain since
9am
mm
Dir  Spd
km/h
Gust
km/h
Spd
kts
Gust
kts
22/11:30pm 13.1 12.3 9.7 80 1.8 SSW 4 6 2 3 1017.0 1016.3 0.0
22/11:00pm 13.4 12.6 9.8 79 1.9 SSW 4 6 2 3 1017.0 1016.3 0.0
22/10:30pm 13.7 13.0 10.1 79 1.9 SSW 4 6 2 3 1017.2 1016.5 0.0
22/10:00pm 13.9 13.3 10.3 79 1.9 SW 4 4 2 2 1017.3 1016.6 0.0
22/09:30pm 14.2 14.3 10.0 76 2.2 CALM 0 0 0 0 1017.1 1016.4 0.0
22/09:00pm 14.5 14.1 9.9 74 2.4 SE 2 4 1 2 1016.8 1016.1 0.0
22/08:30pm 15.2 15.2 9.8 70 2.8 CALM 0 0 0 0 1016.6 1015.9 0.0
22/08:00pm 16.1 16.1 9.8 66 3.3 CALM 0 0 0 0 1016.2 1015.5 0.0
22/07:30pm 17.3 17.3 9.7 61 4.0 CALM 0 0 0 0 1015.8 1015.0 0.0
22/07:00pm 18.8 18.4 9.8 56 4.8 E 2 2 1 1 1015.3 1014.5 0.0
22/06:30pm 21.3 21.1 9.2 46 6.5 CALM 0 0 0 0 1015.0 1014.2 0.0
22/06:00pm 25.9 25.3 8.8 34 9.4 E 2 4 1 2 1014.7 1013.9 0.0
22/05:30pm 29.7 28.7 8.7 27 11.7 E 4 6 2 3 1014.4 1013.6 0.0
22/05:00pm 30.2 28.3 7.4 24 12.5 E 7 11 4 6 1014.3 1013.5 0.0
22/04:30pm 30.9 29.1 8.0 24 12.7 ENE 7 17 4 9 1014.3 1013.5 0.0
22/04:00pm 31.2 29.6 8.2 24 12.8 NNE 6 11 3 6 1014.2 1013.4 0.0
22/03:30pm 31.1 29.5 8.2 24 12.8 E 6 11 3 6 1014.2 1013.4 0.0
22/03:00pm 31.5 30.0 8.5 24 12.9 NE 6 13 3 7 1014.4 1013.6 0.0
22/02:30pm 31.2 29.1 8.2 24 12.8 NE 9 15 5 8 1014.7 1013.9 0.0
22/02:00pm 30.9 28.5 8.6 25 12.5 ESE 11 19 6 10 1014.9 1014.1 0.0
22/01:30pm 30.2 28.6 8.6 26 12.0 ENE 7 17 4 9 1015.4 1014.6 0.0
22/01:00pm 30.7 28.6 8.4 25 12.4 E 9 17 5 9 1016.0 1015.3 0.0
22/12:30pm 29.3 26.8 8.4 27 11.6 ESE 11 28 6 15 1016.6 1015.9 0.0
22/12:00pm 29.4 25.7 7.9 26 11.8 ENE 17 26 9 14 1017.1 1016.4 0.0
22/11:30am 29.0 26.1 8.1 27 11.5 E 13 24 7 13 1017.5 1016.8 0.0
22/11:00am 27.8 25.0 8.6 30 10.6 E 13 20 7 11 1017.9 1017.2 0.0
22/10:30am 26.9 24.8 9.7 34 9.6 ENE 11 20 6 11 1018.2 1017.5 0.0
22/10:00am 25.5 24.2 11.3 41 8.1 ENE 9 17 5 9 1018.3 1017.6 0.0
22/09:30am 23.2 22.5 11.3 47 6.7 ENE 6 9 3 5 1018.4 1017.7 0.0
22/09:00am 20.1 19.3 9.7 51 5.6 ESE 4 9 2 5 1018.4 1017.7 0.0
22/08:30am 17.2 16.6 8.9 58 4.3 SE 2 6 1 3 1018.2 1017.5 0.0
22/08:00am 12.2 11.4 8.1 76 2.0 S 2 4 1 2 1018.1 1017.4 0.0
22/07:30am 8.2 6.6 6.5 89 0.8 S 4 4 2 2 1017.9 1017.2 0.0
22/07:00am 7.8 6.1 6.1 89 0.8 SSW 4 6 2 3 1017.5 1016.8 0.0
22/06:30am 7.9 6.2 6.0 88 0.9 SSW 4 4 2 2 1017.3 1016.6 0.0
22/06:00am 7.9 6.2 6.0 88 0.9 SSW 4 4 2 2 1016.9 1016.2 0.0
22/05:30am 8.0 6.3 6.0 87 0.9 SSW 4 4 2 2 1016.7 1016.0 0.0
22/05:00am 8.2 6.5 6.0 86 1.0 SSW 4 4 2 2 1016.7 1016.0 0.0
22/04:30am 8.4 6.7 6.0 85 1.1 SSW 4 6 2 3 1016.8 1016.1 0.0
22/04:00am 8.6 6.9 6.1 84 1.2 S 4 4 2 2 1016.7 1016.0 0.0
22/03:30am 9.2 7.9 5.9 80 1.5 SSW 2 2 1 1 1016.7 1016.0 0.0
22/03:00am 10.2 9.0 6.4 77 1.8 S 2 4 1 2 1016.9 1016.2 0.0
22/02:30am 11.8 10.6 6.5 70 2.5 NE 2 7 1 4 1017.0 1016.3 0.0
22/02:00am 10.6 9.2 7.1 79 1.7 SSE 4 19 2 10 1017.1 1016.4 0.0
22/01:30am 10.6 9.5 6.7 77 1.9 SSE 2 4 1 2 1016.9 1016.2 0.0
22/01:00am 11.5 10.3 6.4 71 2.4 SE 2 4 1 2 1017.0 1016.3 0.0
22/12:30am 12.9 11.2 6.0 63 3.3 ESE 4 4 2 2 1017.0 1016.3 0.0
22/12:00am 14.1 12.2 6.7 61 3.6 SE 6 9 3 5 1017.2 1016.5 0.0
 
Date/Time
CST
Temp
°C
App
Temp
°C
Dew
Point
°C
Rel
Hum
%
Delta-T
°C
Wind Press
QNH
hPa
Press
MSL
hPa
Rain since
9am
mm
Dir  Spd
km/h
Gust
km/h
Spd
kts
Gust
kts
21/11:30pm 14.3 12.4 6.6 60 3.8 SSE 6 7 3 4 1017.3 1016.6 0.0
21/11:00pm 15.2 13.4 7.3 59 3.9 SSE 6 7 3 4 1017.5 1016.8 0.0
21/10:30pm 12.8 11.2 8.1 73 2.3 SSE 6 7 3 4 1017.4 1016.7 0.0
21/10:00pm 13.1 11.9 8.0 71 2.5 SSE 4 6 2 3 1017.4 1016.7 0.0
21/09:30pm 13.7 12.9 8.1 69 2.8 SE 2 4 1 2 1017.3 1016.6 0.0
21/09:00pm 14.3 13.1 8.0 66 3.2 SSE 4 6 2 3 1016.9 1016.2 0.0
21/08:30pm 15.0 13.8 8.0 63 3.5 SSE 4 6 2 3 1016.6 1015.9 0.0
21/08:00pm 15.9 14.3 8.2 60 3.9 SSE 6 6 3 3 1016.2 1015.5 0.0
21/07:30pm 16.9 15.3 7.8 55 4.6 SSE 6 6 3 3 1016.0 1015.3 0.0
21/07:00pm 18.5 17.0 6.7 46 6.0 S 4 4 2 2 1015.5 1014.7 0.0
21/06:30pm 21.5 19.4 5.8 36 7.9 SSE 6 7 3 4 1015.1 1014.3 0.0
21/06:29pm 21.7 19.6 6.0 36 8.0 SSE 6 7 3 4 1015.1 1014.3 0.0
21/06:00pm 26.7 24.5 6.2 27 10.8 SSE 7 11 4 6 1014.8 1014.0 0.0
21/05:30pm 28.8 26.8 6.2 24 12.0 SE 6 11 3 6 1014.5 1013.7 0.0
21/05:00pm 29.8 27.1 5.8 22 12.8 SE 9 17 5 9 1014.3 1013.5 0.0
21/04:30pm 30.4 28.2 6.3 22 13.0 SE 7 22 4 12 1014.2 1013.4 0.0
21/04:00pm 31.0 28.9 6.8 22 13.2 E 7 15 4 8 1014.2 1013.4 0.0
21/03:30pm 31.0 28.6 6.8 22 13.2 ESE 9 19 5 10 1014.2 1013.4 0.0
21/03:00pm 30.9 28.7 6.0 21 13.4 E 7 19 4 10 1014.5 1013.7 0.0
21/02:30pm 30.9 28.4 6.7 22 13.1 E 9 17 5 9 1014.9 1014.1 0.0
21/02:00pm 30.6 27.8 7.1 23 12.8 E 11 22 6 12 1015.2 1014.4 0.0
21/01:30pm 29.5 26.2 6.2 23 12.4 E 13 22 7 12 1015.8 1015.0 0.0
21/01:00pm 29.7 27.2 6.4 23 12.5 ESE 9 20 5 11 1016.3 1015.6 0.0
21/12:30pm 29.9 27.5 7.2 24 12.3 E 9 20 5 11 1016.9 1016.2 0.0
21/12:00pm 28.7 25.8 6.7 25 11.8 ESE 11 22 6 12 1017.5 1016.8 0.0
21/11:30am 28.8 25.7 7.4 26 11.6 ESE 13 20 7 11 1017.9 1017.2 0.0
21/11:00am 27.6 23.8 5.8 25 11.4 ESE 15 24 8 13 1018.2 1017.5 0.0
21/10:30am 26.4 22.8 4.8 25 11.0 ESE 13 24 7 13 1018.6 1017.8 0.0
21/10:00am 25.2 21.4 5.9 29 10.0 ESE 15 24 8 13 1018.8 1018.0 0.0
21/09:30am 23.8 20.4 5.7 31 9.3 ESE 13 22 7 12 1018.8 1018.0 0.0
21/09:00am 21.9 20.3 10.1 47 6.5 SE 9 13 5 7 1018.7 1017.9 0.0
21/08:30am 18.9 18.0 10.5 58 4.6 SE 6 9 3 5 1018.4 1017.7 0.0
21/08:00am 15.2 14.5 10.2 72 2.6 SE 4 7 2 4 1018.3 1017.6 0.0
21/07:30am 10.6 9.6 8.9 89 0.8 SSE 4 6 2 3 1018.0 1017.3 0.0
21/07:00am 10.1 8.9 8.0 87 1.0 SSE 4 4 2 2 1017.7 1017.0 0.0
21/06:30am 10.4 9.2 8.2 86 1.1 SSE 4 6 2 3 1017.3 1016.6 0.0
21/06:00am 10.3 8.7 8.2 87 1.0 SSE 6 6 3 3 1016.9 1016.2 0.0
21/05:30am 10.3 9.1 8.1 86 1.1 SSE 4 4 2 2 1016.7 1016.0 0.0
21/05:00am 10.8 9.2 8.2 84 1.3 S 6 7 3 4 1016.5 1015.8 0.0
21/04:30am 11.0 9.5 8.4 84 1.3 SSW 6 6 3 3 1016.5 1015.8 0.0
21/04:00am 10.8 9.3 8.4 85 1.2 S 6 7 3 4 1016.7 1016.0 0.0
21/03:30am 11.4 10.3 8.6 83 1.4 SSE 4 6 2 3 1016.6 1015.9 0.0
21/03:00am 12.2 11.5 8.7 79 1.8 E 2 6 1 3 1016.9 1016.2 0.0
21/02:30am 13.9 12.9 8.7 71 2.6 NE 4 6 2 3 1017.1 1016.4 0.0
21/02:00am 15.4 14.2 10.2 71 2.8 NE 7 13 4 7 1017.2 1016.5 0.0
21/01:30am 13.6 13.0 8.9 73 2.4 SE 2 4 1 2 1017.0 1016.3 0.0
21/01:00am 14.9 14.0 9.3 69 2.9 SSE 4 6 2 3 1017.0 1016.3 0.0
21/12:30am 15.9 14.6 9.3 65 3.4 SSE 6 7 3 4 1017.0 1016.3 0.0
21/12:00am 16.4 15.4 10.3 67 3.3 SSE 6 9 3 5 1017.0 1016.3 0.0
 
Date/Time
CST
Temp
°C
App
Temp
°C
Dew
Point
°C
Rel
Hum
%
Delta-T
°C
Wind Press
QNH
hPa
Press
MSL
hPa
Rain since
9am
mm
Dir  Spd
km/h
Gust
km/h
Spd
kts
Gust
kts
20/11:30pm 14.5 13.6 10.7 78 2.0 SSE 6 9 3 5 1017.1 1016.4 0.0
20/11:00pm 13.5 12.4 10.1 80 1.8 S 6 6 3 3 1017.1 1016.4 0.0
20/10:30pm 14.0 14.1 10.2 78 2.0 CALM 0 0 0 0 1017.1 1016.4 0.0
20/10:00pm 14.5 14.6 10.3 76 2.2 CALM 0 0 0 0 1017.1 1016.4 0.0
20/09:30pm 15.2 15.4 10.6 74 2.4 CALM 0 0 0 0 1016.9 1016.2 0.0
20/09:00pm 15.9 15.8 10.9 72 2.7 SE 2 4 1 2 1016.6 1015.9 0.0
20/08:30pm 16.5 16.0 10.8 69 3.1 SSE 4 6 2 3 1016.3 1015.6 0.0
20/08:00pm 17.3 16.8 10.9 66 3.5 SSE 4 6 2 3 1016.0 1015.3 0.0
20/07:30pm 18.3 17.8 10.9 62 4.0 SSE 4 6 2 3 1015.7 1014.9 0.0
20/07:00pm 19.8 18.9 10.8 56 4.9 SSE 6 6 3 3 1015.4 1014.6 0.0
20/06:30pm 22.4 21.5 10.5 47 6.6 SSE 6 6 3 3 1015.1 1014.3 0.0
20/06:00pm 27.2 26.6 10.4 35 9.5 ESE 4 6 2 3 1014.8 1014.0 0.0
20/05:30pm 29.3 28.0 9.9 30 11.0 ESE 7 13 4 7 1014.6 1013.8 0.0
20/05:00pm 30.1 28.8 10.1 29 11.4 ESE 7 13 4 7 1014.2 1013.4 0.0
20/04:30pm 30.8 29.2 10.2 28 11.8 ESE 9 15 5 8 1014.1 1013.3 0.0
20/04:00pm 30.6 28.6 10.0 28 11.8 ESE 11 19 6 10 1014.0 1013.2 0.0
20/03:30pm 31.0 29.6 10.9 29 11.7 E 9 15 5 8 1014.0 1013.2 0.0
20/03:00pm 31.7 30.5 11.5 29 11.9 E 9 17 5 9 1014.3 1013.5 0.0
20/02:30pm 30.9 30.3 11.8 31 11.2 ENE 6 13 3 7 1014.6 1013.8 0.0
20/02:00pm 30.5 28.9 11.5 31 11.1 ESE 11 20 6 11 1014.9 1014.1 0.0
20/01:30pm 29.4 28.3 11.9 34 10.3 E 9 19 5 10 1015.3 1014.5 0.0
20/01:00pm 30.0 28.9 12.0 33 10.6 E 9 20 5 11 1015.6 1014.8 0.0
20/12:30pm 29.6 28.0 11.6 33 10.5 ESE 11 20 6 11 1016.2 1015.5 0.0
20/12:00pm 28.9 27.1 11.0 33 10.3 ESE 11 22 6 12 1016.6 1015.9 0.0
20/11:30am 28.6 26.4 10.8 33 10.2 E 13 19 7 10 1017.0 1016.3 0.0
20/11:00am 27.2 25.4 10.8 36 9.4 E 11 19 6 10 1017.3 1016.6 0.0
20/10:30am 25.6 24.8 11.7 42 8.0 SE 7 13 4 7 1017.5 1016.8 0.0
20/10:00am 24.0 22.3 9.9 41 7.8 SE 9 20 5 11 1017.8 1017.1 0.0
20/09:30am 22.8 20.6 9.2 42 7.4 ESE 11 19 6 10 1017.9 1017.2 0.0
20/09:00am 21.3 18.3 7.5 41 7.2 ESE 13 24 7 13 1017.7 1017.0 0.0
20/08:30am 19.9 17.5 7.0 43 6.6 SE 9 15 5 8 1017.5 1016.8 0.0
20/08:00am 18.1 16.1 7.2 49 5.5 SE 7 13 4 7 1017.2 1016.5 0.0

Other Formats:

Comma delimited format used in spreadsheet applications
http://www.bom.gov.au/fwo/IDD60801/IDD60801.94234.axf

JavaScript Object Notation format (JSON) in row-major order
http://www.bom.gov.au/fwo/IDD60801/IDD60801.94234.json